createdAt,value
2022-09-28T00:00:05.669Z,99.99
2022-09-28T00:01:05.462Z,99.99
2022-09-28T00:02:05.632Z,99.99
2022-09-28T00:03:05.545Z,99.99
2022-09-28T00:04:05.428Z,99.99
2022-09-28T00:05:05.428Z,99.99
2022-09-28T00:06:05.528Z,99.99
2022-09-28T00:07:05.398Z,99.99
2022-09-28T00:08:05.449Z,99.99
2022-09-28T00:09:05.369Z,99.99
2022-09-28T00:10:05.381Z,99.99
2022-09-28T00:11:05.350Z,99.99
2022-09-28T00:12:05.815Z,99.99
2022-09-28T00:13:05.685Z,99.99
2022-09-28T00:14:05.358Z,99.99
2022-09-28T00:15:05.321Z,99.99
2022-09-28T00:16:05.442Z,99.99
2022-09-28T00:17:05.311Z,99.99
2022-09-28T00:18:05.301Z,99.99
2022-09-28T00:19:05.262Z,99.99
2022-09-28T00:20:05.305Z,99.99
2022-09-28T00:21:05.241Z,99.99
2022-09-28T00:22:05.238Z,99.99
2022-09-28T00:23:05.221Z,99.99
2022-09-28T00:24:05.249Z,99.99
2022-09-28T00:25:05.221Z,99.99
2022-09-28T00:26:05.191Z,99.99
2022-09-28T00:27:05.172Z,99.99
2022-09-28T00:28:05.172Z,99.99
2022-09-28T00:29:05.153Z,99.99
2022-09-28T00:30:05.175Z,99.99
2022-09-28T00:31:05.196Z,99.99
2022-09-28T00:32:05.133Z,99.99
2022-09-28T00:33:05.115Z,99.99
2022-09-28T00:34:05.103Z,99.99
2022-09-28T00:35:05.084Z,99.99
2022-09-28T00:36:05.164Z,99.99
2022-09-28T00:37:05.067Z,99.99
2022-09-28T00:38:05.062Z,99.99
2022-09-28T00:39:05.045Z,99.99
2022-09-28T00:40:05.139Z,99.99
2022-09-28T00:41:05.025Z,99.99
2022-09-28T00:42:05.054Z,99.99
2022-09-28T00:43:04.995Z,99.99
2022-09-28T00:44:05.099Z,99.99
2022-09-28T00:45:04.976Z,99.99
2022-09-28T00:46:05.045Z,99.99
2022-09-28T00:47:04.965Z,99.99
2022-09-28T00:48:04.967Z,99.99
2022-09-28T00:49:04.935Z,99.99
2022-09-28T00:50:04.946Z,99.99
2022-09-28T00:51:04.906Z,99.99
2022-09-28T00:52:04.907Z,99.99
2022-09-28T00:53:04.895Z,99.99
2022-09-28T00:54:04.953Z,99.99
2022-09-28T00:55:04.879Z,99.99
2022-09-28T00:56:04.865Z,99.99
2022-09-28T00:57:04.867Z,99.99
2022-09-28T00:58:04.984Z,99.99
2022-09-28T00:59:04.830Z,99.99
2022-09-28T01:00:04.925Z,99.99
2022-09-28T01:01:04.843Z,99.99
2022-09-28T01:02:04.928Z,99.99
2022-09-28T01:03:04.779Z,99.99
2022-09-28T01:04:04.786Z,99.99
2022-09-28T01:05:04.783Z,99.99
2022-09-28T01:06:05.033Z,99.99
2022-09-28T01:07:04.747Z,99.99
2022-09-28T01:08:04.751Z,99.99
2022-09-28T01:09:04.718Z,99.99
2022-09-28T01:10:04.758Z,99.99
2022-09-28T01:11:04.717Z,99.99
2022-09-28T01:12:04.689Z,99.99
2022-09-28T01:13:04.676Z,99.99
2022-09-28T01:14:04.673Z,99.99
2022-09-28T01:15:04.672Z,99.99
2022-09-28T01:16:04.774Z,99.99
2022-09-28T01:17:04.639Z,99.99
2022-09-28T01:18:04.622Z,99.99
2022-09-28T01:19:04.614Z,99.99
2022-09-28T01:20:04.610Z,99.99
2022-09-28T01:21:04.590Z,99.99
2022-09-28T01:22:04.571Z,99.99
2022-09-28T01:23:04.572Z,99.99
2022-09-28T01:24:04.569Z,99.99
2022-09-28T01:25:04.570Z,99.99
2022-09-28T01:26:04.565Z,99.99
2022-09-28T01:27:04.550Z,99.99
2022-09-28T01:28:04.605Z,99.99
2022-09-28T01:29:04.509Z,99.99
2022-09-28T01:30:04.512Z,99.99
2022-09-28T01:31:04.488Z,99.99
2022-09-28T01:32:04.491Z,99.99
2022-09-28T01:33:04.463Z,99.99
2022-09-28T01:34:04.525Z,99.99
2022-09-28T01:35:04.482Z,99.99
2022-09-28T01:36:04.450Z,99.99
2022-09-28T01:37:04.633Z,99.99
2022-09-28T01:38:04.396Z,99.99
2022-09-28T01:39:04.393Z,99.99
2022-09-28T01:40:04.502Z,99.99
2022-09-28T01:41:04.373Z,99.99
2022-09-28T01:42:04.389Z,99.99
2022-09-28T01:43:04.354Z,99.99
2022-09-28T01:44:04.344Z,99.99
2022-09-28T01:45:04.395Z,99.99
2022-09-28T01:46:04.426Z,99.99
2022-09-28T01:47:04.467Z,99.99
2022-09-28T01:48:04.397Z,99.99
2022-09-28T01:49:04.277Z,99.99
2022-09-28T01:50:04.342Z,99.99
2022-09-28T01:51:04.266Z,99.99
2022-09-28T01:52:04.256Z,99.99
2022-09-28T01:53:04.246Z,99.99
2022-09-28T01:54:04.226Z,99.99
2022-09-28T01:55:04.367Z,99.99
2022-09-28T01:56:04.247Z,99.99
2022-09-28T01:57:04.197Z,99.99
2022-09-28T01:58:04.199Z,99.99
2022-09-28T01:59:04.167Z,99.99
2022-09-28T02:00:04.176Z,99.99
2022-09-28T02:01:04.212Z,99.99
2022-09-28T02:02:04.202Z,99.99
2022-09-28T02:03:04.168Z,99.99
2022-09-28T02:04:04.125Z,99.99
2022-09-28T02:05:04.117Z,99.99
2022-09-28T02:06:04.120Z,99.99
2022-09-28T02:07:04.080Z,99.99
2022-09-28T02:08:04.168Z,99.99
2022-09-28T02:09:04.058Z,99.99
2022-09-28T02:10:04.069Z,99.99
2022-09-28T02:11:04.049Z,99.99
2022-09-28T02:12:04.065Z,99.99
2022-09-28T02:13:04.020Z,99.99
2022-09-28T02:14:04.070Z,99.99
2022-09-28T02:15:04.009Z,99.99
2022-09-28T02:16:04.069Z,99.99
2022-09-28T02:17:03.987Z,99.99
2022-09-28T02:18:03.979Z,99.99
2022-09-28T02:19:03.979Z,99.99
2022-09-28T02:20:03.961Z,99.99
2022-09-28T02:21:03.932Z,99.99
2022-09-28T02:22:03.939Z,99.99
2022-09-28T02:23:03.911Z,99.99
2022-09-28T02:24:04.022Z,99.99
2022-09-28T02:25:03.893Z,99.99
2022-09-28T02:26:04.184Z,99.99
2022-09-28T02:27:03.873Z,99.99
2022-09-28T02:28:03.861Z,99.99
2022-09-28T02:29:03.849Z,99.99
2022-09-28T02:30:04.024Z,99.99
2022-09-28T02:31:03.899Z,99.99
2022-09-28T02:32:03.819Z,99.99
2022-09-28T02:33:03.802Z,99.99
2022-09-28T02:34:03.821Z,99.99
2022-09-28T02:35:03.804Z,99.99
2022-09-28T02:36:03.817Z,99.99
2022-09-28T02:37:03.759Z,99.99
2022-09-28T02:38:03.753Z,99.99
2022-09-28T02:39:03.742Z,99.99
2022-09-28T02:40:03.735Z,99.99
2022-09-28T02:41:03.715Z,99.99
2022-09-28T02:42:03.716Z,99.99
2022-09-28T02:43:03.694Z,99.99
2022-09-28T02:44:03.685Z,99.99
2022-09-28T02:45:03.687Z,99.99
2022-09-28T02:46:03.730Z,99.99
2022-09-28T02:47:03.653Z,99.99
2022-09-28T02:48:03.706Z,99.99
2022-09-28T02:49:20.951Z,99.99
2022-09-28T02:50:04.688Z,99.99
2022-09-28T02:51:03.610Z,99.99
2022-09-28T02:52:03.617Z,99.99
2022-09-28T02:53:03.589Z,99.99
2022-09-28T02:54:03.644Z,99.99
2022-09-28T02:55:03.568Z,99.99
2022-09-28T02:56:03.877Z,99.99
2022-09-28T02:57:03.538Z,99.99
2022-09-28T02:58:03.553Z,99.99
2022-09-28T02:59:03.517Z,99.99
2022-09-28T03:00:03.554Z,99.99
2022-09-28T03:01:03.542Z,99.99
2022-09-28T03:02:04.525Z,99.99
2022-09-28T03:03:03.484Z,99.99
2022-09-28T03:04:03.554Z,99.99
2022-09-28T03:05:03.467Z,99.99
2022-09-28T03:06:03.464Z,99.99
2022-09-28T03:07:03.428Z,99.99
2022-09-28T03:08:03.468Z,99.99
2022-09-28T03:09:03.407Z,99.99
2022-09-28T03:10:03.454Z,99.99
2022-09-28T03:11:03.405Z,99.99
2022-09-28T03:12:03.387Z,99.99
2022-09-28T03:13:03.369Z,99.99
2022-09-28T03:14:04.415Z,99.99
2022-09-28T03:15:03.370Z,99.99
2022-09-28T03:16:04.355Z,99.99
2022-09-28T03:17:03.337Z,99.99
2022-09-28T03:18:03.330Z,99.99
2022-09-28T03:19:03.299Z,99.99
2022-09-28T03:20:03.310Z,99.99
2022-09-28T03:21:03.283Z,99.99
2022-09-28T03:22:03.333Z,99.99
2022-09-28T03:24:04.290Z,99.99
2022-09-28T03:25:03.241Z,99.99
2022-09-28T03:26:03.288Z,99.99
2022-09-28T03:27:03.220Z,99.99
2022-09-28T03:28:03.201Z,99.99
2022-09-28T03:29:03.192Z,99.99
2022-09-28T03:30:03.200Z,99.99
2022-09-28T03:31:03.198Z,99.99
2022-09-28T03:32:03.186Z,99.99
2022-09-28T03:33:03.174Z,99.99
2022-09-28T03:34:03.131Z,99.99
2022-09-28T03:35:03.152Z,99.99
2022-09-28T03:36:03.112Z,99.99
2022-09-28T03:37:03.110Z,99.99
2022-09-28T03:38:03.097Z,99.99
2022-09-28T03:39:03.122Z,99.99
2022-09-28T03:40:03.073Z,99.99
2022-09-28T03:41:03.164Z,99.99
2022-09-28T03:42:03.080Z,99.99
2022-09-28T03:43:03.046Z,99.99
2022-09-28T03:44:03.043Z,99.99
2022-09-28T03:45:03.057Z,99.99
2022-09-28T03:46:03.073Z,99.99
2022-09-28T03:47:03.002Z,99.99
2022-09-28T03:48:02.994Z,99.99
2022-09-28T03:49:02.972Z,99.99
2022-09-28T03:50:03.005Z,99.99
2022-09-28T03:51:02.953Z,99.99
2022-09-28T03:52:02.935Z,99.99
2022-09-28T03:53:02.933Z,99.99
2022-09-28T03:54:02.926Z,99.99
2022-09-28T03:55:02.926Z,99.99
2022-09-28T03:56:02.916Z,99.99
2022-09-28T03:57:02.893Z,99.99
2022-09-28T03:58:02.884Z,99.99
2022-09-28T03:59:02.865Z,99.99
2022-09-28T04:00:02.874Z,99.99
2022-09-28T04:01:02.927Z,99.99
2022-09-28T04:02:02.894Z,99.99
2022-09-28T04:03:02.825Z,99.99
2022-09-28T04:04:02.856Z,99.99
2022-09-28T04:05:02.833Z,99.99
2022-09-28T04:06:02.792Z,99.99
2022-09-28T04:07:02.793Z,99.99
2022-09-28T04:08:02.823Z,99.99
2022-09-28T04:09:02.760Z,99.99
2022-09-28T04:10:02.765Z,99.99
2022-09-28T04:11:02.759Z,99.99
2022-09-28T04:12:04.477Z,99.99
2022-09-28T04:13:02.714Z,99.99
2022-09-28T04:14:02.789Z,99.99
2022-09-28T04:15:02.697Z,99.99
2022-09-28T04:16:02.728Z,99.99
2022-09-28T04:17:02.670Z,99.99
2022-09-28T04:18:02.846Z,99.99
2022-09-28T04:19:02.647Z,99.99
2022-09-28T04:20:02.679Z,99.99
2022-09-28T04:21:02.630Z,99.99
2022-09-28T04:22:02.971Z,99.99
2022-09-28T04:23:02.610Z,99.99
2022-09-28T04:24:02.658Z,99.99
2022-09-28T04:25:02.619Z,99.99
2022-09-28T04:26:02.752Z,99.99
2022-09-28T04:27:02.560Z,99.99
2022-09-28T04:28:02.809Z,99.99
2022-09-28T04:29:06.312Z,99.99
2022-09-28T04:30:02.778Z,99.99
2022-09-28T04:31:02.519Z,99.99
2022-09-28T04:32:02.567Z,99.99
2022-09-28T04:33:02.500Z,99.99
2022-09-28T04:34:02.841Z,99.99
2022-09-28T04:35:02.481Z,99.99
2022-09-28T04:36:02.751Z,99.99
2022-09-28T04:37:02.452Z,99.99
2022-09-28T04:38:03.478Z,99.99
2022-09-28T04:39:02.432Z,99.99
2022-09-28T04:40:02.569Z,99.99
2022-09-28T04:41:02.453Z,99.99
2022-09-28T04:42:02.478Z,99.99
2022-09-28T04:43:02.381Z,99.99
2022-09-28T04:44:02.407Z,99.99
2022-09-28T04:45:02.395Z,99.99
2022-09-28T04:46:02.689Z,99.99
2022-09-28T04:47:05.195Z,99.99
2022-09-28T04:48:02.415Z,99.99
2022-09-28T04:49:02.322Z,99.99
2022-09-28T04:50:02.331Z,99.99
2022-09-28T04:51:02.293Z,99.99
2022-09-28T04:52:02.325Z,99.99
2022-09-28T04:53:02.272Z,99.99
2022-09-28T04:54:02.273Z,99.99
2022-09-28T04:55:02.263Z,99.99
2022-09-28T04:56:02.270Z,99.99
2022-09-28T04:57:02.232Z,99.99
2022-09-28T04:58:02.253Z,99.99
2022-09-28T04:59:02.204Z,99.99
2022-09-28T05:00:02.263Z,99.99
2022-09-28T05:01:02.219Z,99.99
2022-09-28T05:02:02.249Z,99.99
2022-09-28T05:03:02.165Z,99.99
2022-09-28T05:04:02.246Z,99.99
2022-09-28T05:05:02.171Z,99.99
2022-09-28T05:06:02.135Z,99.99
2022-09-28T05:07:02.135Z,99.99
2022-09-28T05:08:02.124Z,99.99
2022-09-28T05:09:02.103Z,99.99
2022-09-28T05:10:02.137Z,99.99
2022-09-28T05:11:02.086Z,99.99
2022-09-28T05:12:02.075Z,99.99
2022-09-28T05:13:02.055Z,99.99
2022-09-28T05:14:02.086Z,99.99
2022-09-28T05:15:02.067Z,99.99
2022-09-28T05:16:05.409Z,99.99
2022-09-28T05:17:02.047Z,99.99
2022-09-28T05:18:02.028Z,99.99
2022-09-28T05:19:01.986Z,99.99
2022-09-28T05:20:02.006Z,99.99
2022-09-28T05:21:01.970Z,99.99
2022-09-28T05:22:01.958Z,99.99
2022-09-28T05:23:01.947Z,99.99
2022-09-28T05:24:01.942Z,99.99
2022-09-28T05:25:01.929Z,99.99
2022-09-28T05:26:01.956Z,99.99
2022-09-28T05:27:01.898Z,99.99
2022-09-28T05:28:01.991Z,99.99
2022-09-28T05:29:01.907Z,99.99
2022-09-28T05:30:01.955Z,99.99
2022-09-28T05:31:01.859Z,99.99
2022-09-28T05:32:02.058Z,99.99
2022-09-28T05:33:01.840Z,99.99
2022-09-28T05:34:01.853Z,99.99
2022-09-28T05:35:01.831Z,99.99
2022-09-28T05:36:02.096Z,99.99
2022-09-28T05:37:01.790Z,99.99
2022-09-28T05:38:01.829Z,99.99
2022-09-28T05:39:01.770Z,99.99
2022-09-28T05:40:01.799Z,99.99
2022-09-28T05:41:06.258Z,99.99
2022-09-28T05:42:01.750Z,99.99
2022-09-28T05:43:01.743Z,99.99
2022-09-28T05:44:01.775Z,99.99
2022-09-28T05:45:01.710Z,99.99
2022-09-28T05:46:01.758Z,99.99
2022-09-28T05:47:01.732Z,99.99
2022-09-28T05:48:01.690Z,99.99
2022-09-28T05:49:01.680Z,99.99
2022-09-28T05:50:01.671Z,99.99
2022-09-28T05:51:01.650Z,99.99
2022-09-28T05:52:01.650Z,99.99
2022-09-28T05:53:01.623Z,99.99
2022-09-28T05:54:05.752Z,99.99
2022-09-28T05:55:01.639Z,99.99
2022-09-28T05:56:01.747Z,99.99
2022-09-28T05:57:01.591Z,99.99
2022-09-28T05:58:01.572Z,99.99
2022-09-28T05:59:01.573Z,99.99
2022-09-28T06:00:01.583Z,99.99
2022-09-28T06:01:01.584Z,99.99
2022-09-28T06:02:01.576Z,99.99
2022-09-28T06:03:05.389Z,99.99
2022-09-28T06:04:02.612Z,99.99
2022-09-28T06:05:01.528Z,99.99
2022-09-28T06:06:01.621Z,99.99
2022-09-28T06:07:01.464Z,99.99
2022-09-28T06:08:01.462Z,99.99
2022-09-28T06:09:01.448Z,99.99
2022-09-28T06:10:01.444Z,99.99
2022-09-28T06:11:01.426Z,99.99
2022-09-28T06:12:01.418Z,99.99
2022-09-28T06:13:01.416Z,99.99
2022-09-28T06:14:01.395Z,99.99
2022-09-28T06:15:01.406Z,99.99
2022-09-28T06:16:01.375Z,99.99
2022-09-28T06:17:01.402Z,99.99
2022-09-28T06:18:01.357Z,99.99
2022-09-28T06:19:01.332Z,99.99
2022-09-28T06:20:01.361Z,99.99
2022-09-28T06:21:01.339Z,99.99
2022-09-28T06:22:01.316Z,99.99
2022-09-28T06:23:01.297Z,99.99
2022-09-28T06:24:01.355Z,99.99
2022-09-28T06:25:01.276Z,99.99
2022-09-28T06:26:01.266Z,99.99
2022-09-28T06:27:01.249Z,99.99
2022-09-28T06:28:01.238Z,99.99
2022-09-28T06:29:01.252Z,99.99
2022-09-28T06:30:01.229Z,99.99
2022-09-28T06:31:01.256Z,99.99
2022-09-28T06:32:01.199Z,99.99
2022-09-28T06:33:01.178Z,99.99
2022-09-28T06:34:01.170Z,99.99
2022-09-28T06:35:01.176Z,99.99
2022-09-28T06:36:01.166Z,99.99
2022-09-28T06:37:01.129Z,99.99
2022-09-28T06:38:01.137Z,99.99
2022-09-28T06:39:01.110Z,99.99
2022-09-28T06:40:01.111Z,99.99
2022-09-28T06:41:01.179Z,99.99
2022-09-28T06:42:01.112Z,99.99
2022-09-28T06:43:01.075Z,99.99
2022-09-28T06:44:01.061Z,99.99
2022-09-28T06:45:01.060Z,99.99
2022-09-28T06:46:01.116Z,99.99
2022-09-28T06:47:01.117Z,99.99
2022-09-28T06:48:01.024Z,99.99
2022-09-28T06:49:01.004Z,99.99
2022-09-28T06:50:01.004Z,99.99
2022-09-28T06:51:00.982Z,99.99
2022-09-28T06:52:00.992Z,99.99
2022-09-28T06:53:00.961Z,99.99
2022-09-28T06:54:00.953Z,99.99
2022-09-28T06:55:00.943Z,99.99
2022-09-28T06:56:00.934Z,99.99
2022-09-28T06:57:00.973Z,99.99
2022-09-28T06:58:00.915Z,99.99
2022-09-28T06:59:00.902Z,99.99
2022-09-28T07:00:00.904Z,99.99
2022-09-28T07:01:00.900Z,99.99
2022-09-28T07:02:00.904Z,99.99
2022-09-28T07:03:00.843Z,99.99
2022-09-28T07:04:00.846Z,99.99
2022-09-28T07:05:00.903Z,99.99
2022-09-28T07:06:00.815Z,99.99
2022-09-28T07:07:00.804Z,99.99
2022-09-28T07:08:00.796Z,99.99
2022-09-28T07:09:23.868Z,99.99
2022-09-28T07:10:01.872Z,99.99
2022-09-28T07:11:00.780Z,99.99
2022-09-28T07:12:00.745Z,99.99
2022-09-28T07:13:00.764Z,99.99
2022-09-28T07:14:00.785Z,99.99
2022-09-28T07:15:00.744Z,99.99
2022-09-28T07:16:00.713Z,99.99
2022-09-28T07:17:13.654Z,99.99
2022-09-28T07:18:03.462Z,99.99
2022-09-28T07:19:00.676Z,99.99
2022-09-28T07:20:09.148Z,99.99
2022-09-28T07:21:01.668Z,99.99
2022-09-28T07:22:04.984Z,99.99
2022-09-28T07:23:15.243Z,99.99
2022-09-28T07:24:01.723Z,99.99
2022-09-28T07:25:00.619Z,99.99
2022-09-28T07:26:00.603Z,99.99
2022-09-28T07:27:00.595Z,99.99
2022-09-28T07:28:00.568Z,99.99
2022-09-28T07:29:00.568Z,99.99
2022-09-28T07:30:00.568Z,99.99
2022-09-28T07:31:00.576Z,99.99
2022-09-28T07:32:00.528Z,99.99
2022-09-28T07:33:00.532Z,99.99
2022-09-28T07:34:00.527Z,99.99
2022-09-28T07:35:00.519Z,99.99
2022-09-28T07:36:00.480Z,99.99
2022-09-28T07:37:00.482Z,99.99
2022-09-28T07:38:00.463Z,99.99
2022-09-28T07:39:00.459Z,99.99
2022-09-28T07:40:00.461Z,99.99
2022-09-28T07:41:00.537Z,99.99
2022-09-28T07:42:03.031Z,99.99
2022-09-28T07:43:00.411Z,99.99
2022-09-28T07:44:00.401Z,99.99
2022-09-28T07:45:00.403Z,99.99
2022-09-28T07:46:00.453Z,99.99
2022-09-28T07:47:00.364Z,99.99
2022-09-28T07:48:00.387Z,99.99
2022-09-28T07:49:00.343Z,99.99
2022-09-28T07:50:00.352Z,99.99
2022-09-28T07:51:00.321Z,99.99
2022-09-28T07:52:00.304Z,99.99
2022-09-28T07:53:00.302Z,99.99
2022-09-28T07:54:00.291Z,99.99
2022-09-28T07:55:04.583Z,99.99
2022-09-28T07:56:01.274Z,99.99
2022-09-28T07:57:00.254Z,99.99
2022-09-28T07:58:00.253Z,99.99
2022-09-28T07:59:00.233Z,99.99
2022-09-28T08:00:00.248Z,99.99
2022-09-28T08:01:00.240Z,99.99
2022-09-28T08:02:00.269Z,99.99
2022-09-28T08:03:00.195Z,99.99
2022-09-28T08:04:00.176Z,99.99
2022-09-28T08:05:00.235Z,99.99
2022-09-28T08:06:00.176Z,99.99
2022-09-28T08:07:00.157Z,99.99
2022-09-28T08:08:00.136Z,99.99
2022-09-28T08:09:00.126Z,99.99
2022-09-28T08:10:00.132Z,99.99
2022-09-28T08:11:00.197Z,99.99
2022-09-28T08:12:00.099Z,99.99
2022-09-28T08:13:02.602Z,99.99
2022-09-28T08:14:00.079Z,99.99
2022-09-28T08:15:00.083Z,99.99
2022-09-28T08:16:00.061Z,99.99
2022-09-28T08:17:00.029Z,99.99
2022-09-28T08:18:02.641Z,99.99
2022-09-28T08:19:00.008Z,99.99
2022-09-28T08:20:00.049Z,99.99
2022-09-28T08:20:59.988Z,99.99
2022-09-28T08:21:59.980Z,99.99
2022-09-28T08:22:59.968Z,99.99
2022-09-28T08:23:59.999Z,99.99
2022-09-28T08:24:59.950Z,99.99
2022-09-28T08:25:59.974Z,99.99
2022-09-28T08:26:59.925Z,99.93
2022-09-28T08:27:59.920Z,97.98
2022-09-28T08:28:59.902Z,95.59
2022-09-28T08:29:59.921Z,95.48
2022-09-28T08:30:59.914Z,94.26
2022-09-28T08:32:01.690Z,93.91
2022-09-28T08:32:59.861Z,94.42
2022-09-28T08:33:59.844Z,94.01
2022-09-28T08:34:59.831Z,94.36
2022-09-28T08:36:00.043Z,92.83
2022-09-28T08:36:59.803Z,92.32
2022-09-28T08:37:59.803Z,92.97
2022-09-28T08:38:59.816Z,92.66
2022-09-28T08:39:59.783Z,92.56
2022-09-28T08:40:59.856Z,92.46
2022-09-28T08:41:59.765Z,92.36
2022-09-28T08:42:59.775Z,94.10
2022-09-28T08:43:59.766Z,94.36
2022-09-28T08:44:59.725Z,94.26
2022-09-28T08:45:59.778Z,94.56
2022-09-28T08:46:59.696Z,93.95
2022-09-28T08:47:59.698Z,94.42
2022-09-28T08:49:23.764Z,94.32
2022-09-28T08:50:00.690Z,94.62
2022-09-28T08:50:59.678Z,93.19
2022-09-28T08:51:59.662Z,93.05
2022-09-28T08:52:59.626Z,93.25
2022-09-28T08:53:59.628Z,91.47
2022-09-28T08:54:59.617Z,91.37
2022-09-28T08:55:59.660Z,91.74
2022-09-28T08:56:59.588Z,88.98
2022-09-28T08:57:59.577Z,90.77
2022-09-28T08:58:59.569Z,90.26
2022-09-28T08:59:59.558Z,89.92
2022-09-28T09:00:59.602Z,88.79
2022-09-28T09:01:59.559Z,89.10
2022-09-28T09:02:59.574Z,88.28
2022-09-28T09:03:59.519Z,88.18
2022-09-28T09:04:59.500Z,88.18
2022-09-28T09:05:59.502Z,87.57
2022-09-28T09:06:59.479Z,87.47
2022-09-28T09:07:59.472Z,87.47
2022-09-28T09:08:59.461Z,85.13
2022-09-28T09:09:59.442Z,87.02
2022-09-28T09:10:59.443Z,87.37
2022-09-28T09:11:59.432Z,86.76
2022-09-28T09:12:59.415Z,85.94
2022-09-28T09:13:59.685Z,86.55
2022-09-28T09:14:59.394Z,86.24
2022-09-28T09:15:59.391Z,86.55
2022-09-28T09:17:00.591Z,86.24
2022-09-28T09:17:59.372Z,87.06
2022-09-28T09:18:59.367Z,87.06
2022-09-28T09:19:59.354Z,86.96
2022-09-28T09:20:59.338Z,85.84
2022-09-28T09:21:59.487Z,87.47
2022-09-28T09:22:59.297Z,86.15
2022-09-28T09:24:00.016Z,86.65
2022-09-28T09:24:59.268Z,87.43
2022-09-28T09:25:59.278Z,86.00
2022-09-28T09:26:59.257Z,83.21
2022-09-28T09:27:59.258Z,83.31
2022-09-28T09:28:59.230Z,83.51
2022-09-28T09:29:59.222Z,82.70
2022-09-28T09:30:59.233Z,83.11
2022-09-28T09:31:59.199Z,84.74
2022-09-28T09:32:59.195Z,82.33
2022-09-28T09:33:59.183Z,84.78
2022-09-28T09:34:59.162Z,84.11
2022-09-28T09:35:59.212Z,84.41
2022-09-28T09:36:59.138Z,84.00
2022-09-28T09:37:59.131Z,85.57
2022-09-28T09:38:59.148Z,86.69
2022-09-28T09:39:59.112Z,84.34
2022-09-28T09:40:59.179Z,84.86
2022-09-28T09:41:59.112Z,83.80
2022-09-28T09:42:59.074Z,85.02
2022-09-28T09:43:59.064Z,84.98
2022-09-28T09:44:59.055Z,86.10
2022-09-28T09:45:59.128Z,84.03
2022-09-28T09:46:59.038Z,80.50
2022-09-28T09:47:59.034Z,81.31
2022-09-28T09:48:59.007Z,85.45
2022-09-28T09:49:59.013Z,84.53
2022-09-28T09:50:58.986Z,83.62
2022-09-28T09:51:58.974Z,83.98
2022-09-28T09:52:58.984Z,82.97
2022-09-28T09:53:59.047Z,83.17
2022-09-28T09:54:58.958Z,81.95
2022-09-28T09:55:58.938Z,81.91
2022-09-28T09:56:58.938Z,80.08
2022-09-28T09:57:58.919Z,81.91
2022-09-28T09:58:58.901Z,81.71
2022-09-28T09:59:58.889Z,80.08
2022-09-28T10:00:58.922Z,80.99
2022-09-28T10:01:58.930Z,81.85
2022-09-28T10:02:58.900Z,81.85
2022-09-28T10:03:58.899Z,81.74
2022-09-28T10:04:58.841Z,80.93
2022-09-28T10:05:58.868Z,79.34
2022-09-28T10:06:58.804Z,81.48
2022-09-28T10:07:58.803Z,83.21
2022-09-28T10:08:58.790Z,81.17
2022-09-28T10:09:58.784Z,77.91
2022-09-28T10:10:58.782Z,77.98
2022-09-28T10:11:58.757Z,79.71
2022-09-28T10:12:58.744Z,78.80
2022-09-28T10:13:58.735Z,77.20
2022-09-28T10:14:58.745Z,78.22
2022-09-28T10:15:58.712Z,78.22
2022-09-28T10:16:58.800Z,81.04
2022-09-28T10:17:58.701Z,77.67
2022-09-28T10:18:58.675Z,76.86
2022-09-28T10:19:58.688Z,79.61
2022-09-28T10:20:58.666Z,79.16
2022-09-28T10:21:58.646Z,77.64
2022-09-28T10:22:58.636Z,77.94
2022-09-28T10:23:58.618Z,77.64
2022-09-28T10:24:58.627Z,80.38
2022-09-28T10:25:58.599Z,77.64
2022-09-28T10:26:58.598Z,78.35
2022-09-28T10:27:58.582Z,78.05
2022-09-28T10:28:58.579Z,77.06
2022-09-28T10:29:58.559Z,78.59
2022-09-28T10:30:58.611Z,78.49
2022-09-28T10:31:58.542Z,77.37
2022-09-28T10:32:58.538Z,76.59
2022-09-28T10:33:58.505Z,77.61
2022-09-28T10:34:58.511Z,76.53
2022-09-28T10:35:58.490Z,76.93
2022-09-28T10:36:58.594Z,78.16
2022-09-28T10:37:58.492Z,78.19
2022-09-28T10:38:58.464Z,78.80
2022-09-28T10:39:58.462Z,79.21
2022-09-28T10:40:58.526Z,78.77
2022-09-28T10:41:58.434Z,81.58
2022-09-28T10:42:58.414Z,77.51
2022-09-28T10:43:58.604Z,78.63
2022-09-28T10:44:58.427Z,80.26
2022-09-28T10:45:58.446Z,80.87
2022-09-28T10:46:58.384Z,79.81
2022-09-28T10:47:58.367Z,79.27
2022-09-28T10:48:58.358Z,80.55
2022-09-28T10:49:58.379Z,77.20
2022-09-28T10:50:58.336Z,75.84
2022-09-28T10:51:58.317Z,73.87
2022-09-28T10:52:58.309Z,74.68
2022-09-28T10:53:58.344Z,77.53
2022-09-28T10:54:58.297Z,75.02
2022-09-28T10:55:58.278Z,77.06
2022-09-28T10:56:58.268Z,74.55
2022-09-28T10:57:58.240Z,75.60
2022-09-28T10:58:58.239Z,78.86
2022-09-28T10:59:58.249Z,76.42
2022-09-28T11:00:58.274Z,75.13
2022-09-28T11:01:58.234Z,76.76
2022-09-28T11:02:58.234Z,79.20
2022-09-28T11:03:58.181Z,77.20
2022-09-28T11:04:58.197Z,76.79
2022-09-28T11:05:58.181Z,77.44
2022-09-28T11:07:58.140Z,78.97
2022-09-28T11:08:58.132Z,79.68
2022-09-28T11:09:58.123Z,79.79
2022-09-28T11:10:58.106Z,79.17
2022-09-28T11:11:58.106Z,78.87
2022-09-28T11:12:58.089Z,78.36
2022-09-28T11:13:58.073Z,78.77
2022-09-28T11:14:58.094Z,78.93
2022-09-28T11:15:58.054Z,76.86
2022-09-28T11:16:58.070Z,76.18
2022-09-28T11:17:58.194Z,75.23
2022-09-28T11:18:58.018Z,77.39
2022-09-28T11:19:58.017Z,73.09
2022-09-28T11:20:57.997Z,74.65
2022-09-28T11:21:57.986Z,73.90
2022-09-28T11:22:57.988Z,71.73
2022-09-28T11:23:58.044Z,71.70
2022-09-28T11:24:58.060Z,70.25
2022-09-28T11:25:57.941Z,72.34
2022-09-28T11:26:57.949Z,70.12
2022-09-28T11:27:57.921Z,69.10
2022-09-28T11:28:57.913Z,66.27
2022-09-28T11:29:57.903Z,68.60
2022-09-28T11:30:58.065Z,70.15
2022-09-28T11:31:57.875Z,70.18
2022-09-28T11:32:57.952Z,71.20
2022-09-28T11:33:57.853Z,71.73
2022-09-28T11:34:59.877Z,70.76
2022-09-28T11:35:57.836Z,68.19
2022-09-28T11:37:01.508Z,69.71
2022-09-28T11:37:57.814Z,70.86
2022-09-28T11:38:57.806Z,72.99
2022-09-28T11:39:57.796Z,76.24
2022-09-28T11:40:57.855Z,76.20
2022-09-28T11:41:57.776Z,76.61
2022-09-28T11:42:57.948Z,74.58
2022-09-28T11:43:57.754Z,74.88
2022-09-28T11:44:57.758Z,73.66
2022-09-28T11:45:57.782Z,74.41
2022-09-28T11:46:57.718Z,75.43
2022-09-28T11:47:57.709Z,75.02
2022-09-28T11:48:57.708Z,76.03
2022-09-28T11:49:57.690Z,76.24
2022-09-28T11:50:57.742Z,73.29
2022-09-28T11:51:57.660Z,72.99
2022-09-28T11:52:57.651Z,74.24
2022-09-28T11:53:57.653Z,76.88
2022-09-28T11:54:57.634Z,76.37
2022-09-28T11:55:57.626Z,75.36
2022-09-28T11:56:57.614Z,73.63
2022-09-28T11:57:57.594Z,76.48
2022-09-28T11:58:57.603Z,76.98
2022-09-28T11:59:57.607Z,74.38
2022-09-28T12:00:57.559Z,73.26
2022-09-28T12:01:57.639Z,74.92
2022-09-28T12:02:57.679Z,75.12
2022-09-28T12:03:57.561Z,76.25
2022-09-28T12:04:57.535Z,74.52
2022-09-28T12:05:57.506Z,75.84
2022-09-28T12:06:57.486Z,75.02
2022-09-28T12:07:57.497Z,75.94
2022-09-28T12:08:57.479Z,75.84
2022-09-28T12:09:57.458Z,77.26
2022-09-28T12:10:57.448Z,77.33
2022-09-28T12:11:58.099Z,77.94
2022-09-28T12:12:57.646Z,74.79
2022-09-28T12:13:57.862Z,73.46
2022-09-28T12:14:57.657Z,74.79
2022-09-28T12:17:06.909Z,74.38
2022-09-28T12:17:58.635Z,75.40
2022-09-28T12:18:57.706Z,74.38
2022-09-28T12:19:57.623Z,76.82
2022-09-28T12:21:01.760Z,75.40
2022-09-28T12:21:58.457Z,74.88
2022-09-28T12:22:57.618Z,76.21
2022-09-28T12:23:58.129Z,77.53
2022-09-28T12:24:57.526Z,77.63
2022-09-28T12:25:57.564Z,77.22
2022-09-28T12:26:57.491Z,77.53
2022-09-28T12:27:57.263Z,75.29
2022-09-28T12:28:57.274Z,76.21
2022-09-28T12:29:57.374Z,75.70
2022-09-28T12:30:57.463Z,75.60
2022-09-28T12:31:57.249Z,78.04
2022-09-28T12:32:57.224Z,77.22
2022-09-28T12:33:57.206Z,77.06
2022-09-28T12:34:57.185Z,76.86
2022-09-28T12:35:57.188Z,75.63
2022-09-28T12:36:57.167Z,76.95
2022-09-28T12:37:57.164Z,76.45
2022-09-28T12:39:17.448Z,79.09
2022-09-28T12:39:58.631Z,76.55
2022-09-28T12:40:57.146Z,75.94
2022-09-28T12:41:57.116Z,77.56
2022-09-28T12:42:57.098Z,76.48
2022-09-28T12:43:57.111Z,75.37
2022-09-28T12:44:59.389Z,75.67
2022-09-28T12:46:11.513Z,76.18
2022-09-28T12:46:58.206Z,77.09
2022-09-28T12:47:57.051Z,75.98
2022-09-28T12:49:47.204Z,75.67
2022-09-28T12:50:58.465Z,75.98
2022-09-28T12:51:57.003Z,76.28
2022-09-28T12:52:59.383Z,76.52
2022-09-28T12:53:58.003Z,76.99
2022-09-28T12:54:57.066Z,77.09
2022-09-28T12:55:56.962Z,77.23